sensor_id;sensor_type;location;lat;lon;timestamp;P1;durP1;ratioP1;P2;durP2;ratioP2
65558;SDS011;52203;51.998;5.140;2022-07-06T00:01:09;3.67;;;1.48;;
65558;SDS011;52203;51.998;5.140;2022-07-06T00:03:35;3.70;;;1.98;;
65558;SDS011;52203;51.998;5.140;2022-07-06T00:06:00;3.58;;;1.40;;
65558;SDS011;52203;51.998;5.140;2022-07-06T00:08:26;2.53;;;1.35;;
65558;SDS011;52203;51.998;5.140;2022-07-06T00:10:51;2.75;;;1.40;;
65558;SDS011;52203;51.998;5.140;2022-07-06T00:13:17;2.53;;;1.40;;
65558;SDS011;52203;51.998;5.140;2022-07-06T00:15:42;2.97;;;1.50;;
65558;SDS011;52203;51.998;5.140;2022-07-06T00:18:08;2.72;;;1.42;;
65558;SDS011;52203;51.998;5.140;2022-07-06T00:20:33;3.95;;;1.17;;
65558;SDS011;52203;51.998;5.140;2022-07-06T00:22:59;3.63;;;1.50;;
65558;SDS011;52203;51.998;5.140;2022-07-06T00:25:24;2.67;;;1.23;;
65558;SDS011;52203;51.998;5.140;2022-07-06T00:27:50;2.13;;;1.33;;
65558;SDS011;52203;51.998;5.140;2022-07-06T00:30:16;3.03;;;1.38;;
65558;SDS011;52203;51.998;5.140;2022-07-06T00:32:41;2.75;;;1.38;;
65558;SDS011;52203;51.998;5.140;2022-07-06T00:35:07;3.75;;;1.67;;
65558;SDS011;52203;51.998;5.140;2022-07-06T00:37:32;4.43;;;1.65;;
65558;SDS011;52203;51.998;5.140;2022-07-06T00:39:58;3.92;;;1.42;;
65558;SDS011;52203;51.998;5.140;2022-07-06T00:42:23;3.35;;;1.40;;
65558;SDS011;52203;51.998;5.140;2022-07-06T00:44:49;4.32;;;1.88;;
65558;SDS011;52203;51.998;5.140;2022-07-06T00:47:15;3.70;;;1.75;;
65558;SDS011;52203;51.998;5.140;2022-07-06T00:49:40;2.53;;;1.40;;
65558;SDS011;52203;51.998;5.140;2022-07-06T00:52:24;3.42;;;1.50;;
65558;SDS011;52203;51.998;5.140;2022-07-06T00:54:50;3.10;;;1.60;;
65558;SDS011;52203;51.998;5.140;2022-07-06T00:57:17;3.40;;;1.35;;
65558;SDS011;52203;51.998;5.140;2022-07-06T00:59:43;4.13;;;1.52;;
65558;SDS011;52203;51.998;5.140;2022-07-06T01:02:08;4.30;;;1.65;;
65558;SDS011;52203;51.998;5.140;2022-07-06T01:04:34;4.93;;;1.85;;
65558;SDS011;52203;51.998;5.140;2022-07-06T01:07:00;2.58;;;1.40;;
65558;SDS011;52203;51.998;5.140;2022-07-06T01:09:26;3.72;;;1.50;;
65558;SDS011;52203;51.998;5.140;2022-07-06T01:11:52;3.47;;;1.30;;
65558;SDS011;52203;51.998;5.140;2022-07-06T01:14:18;4.43;;;1.42;;
65558;SDS011;52203;51.998;5.140;2022-07-06T01:16:45;3.65;;;1.60;;
65558;SDS011;52203;51.998;5.140;2022-07-06T01:19:10;3.00;;;1.50;;
65558;SDS011;52203;51.998;5.140;2022-07-06T01:21:37;3.80;;;1.90;;
65558;SDS011;52203;51.998;5.140;2022-07-06T01:24:03;3.85;;;1.83;;
65558;SDS011;52203;51.998;5.140;2022-07-06T01:26:29;2.72;;;1.52;;
65558;SDS011;52203;51.998;5.140;2022-07-06T01:28:55;3.45;;;1.60;;
65558;SDS011;52203;51.998;5.140;2022-07-06T01:31:21;4.45;;;1.60;;
65558;SDS011;52203;51.998;5.140;2022-07-06T01:33:48;2.25;;;1.20;;
65558;SDS011;52203;51.998;5.140;2022-07-06T01:36:15;5.78;;;2.08;;
65558;SDS011;52203;51.998;5.140;2022-07-06T01:38:45;4.45;;;1.75;;
65558;SDS011;52203;51.998;5.140;2022-07-06T01:41:10;3.65;;;1.52;;
65558;SDS011;52203;51.998;5.140;2022-07-06T01:43:37;2.85;;;1.30;;
65558;SDS011;52203;51.998;5.140;2022-07-06T01:46:02;2.92;;;1.48;;
65558;SDS011;52203;51.998;5.140;2022-07-06T01:48:27;2.78;;;1.40;;
65558;SDS011;52203;51.998;5.140;2022-07-06T01:50:53;3.22;;;1.48;;
65558;SDS011;52203;51.998;5.140;2022-07-06T01:53:18;2.80;;;1.30;;
65558;SDS011;52203;51.998;5.140;2022-07-06T01:55:44;2.33;;;1.35;;
65558;SDS011;52203;51.998;5.140;2022-07-06T01:58:09;4.15;;;1.50;;
65558;SDS011;52203;51.998;5.140;2022-07-06T02:00:35;2.05;;;1.30;;
65558;SDS011;52203;51.998;5.140;2022-07-06T02:03:00;3.58;;;1.50;;
65558;SDS011;52203;51.998;5.140;2022-07-06T02:05:26;2.90;;;1.60;;
65558;SDS011;52203;51.998;5.140;2022-07-06T02:07:51;2.70;;;1.33;;
65558;SDS011;52203;51.998;5.140;2022-07-06T02:10:17;3.35;;;1.58;;
65558;SDS011;52203;51.998;5.140;2022-07-06T02:12:42;3.45;;;1.55;;
65558;SDS011;52203;51.998;5.140;2022-07-06T02:15:08;2.75;;;1.73;;
65558;SDS011;52203;51.998;5.140;2022-07-06T02:17:34;4.57;;;1.90;;
65558;SDS011;52203;51.998;5.140;2022-07-06T02:19:59;5.18;;;1.40;;
65558;SDS011;52203;51.998;5.140;2022-07-06T02:22:25;2.75;;;1.33;;
65558;SDS011;52203;51.998;5.140;2022-07-06T02:24:50;3.13;;;1.50;;
65558;SDS011;52203;51.998;5.140;2022-07-06T02:27:15;2.75;;;1.48;;
65558;SDS011;52203;51.998;5.140;2022-07-06T02:29:41;2.55;;;1.50;;
65558;SDS011;52203;51.998;5.140;2022-07-06T02:32:07;3.58;;;1.38;;
65558;SDS011;52203;51.998;5.140;2022-07-06T02:34:32;2.90;;;1.52;;
65558;SDS011;52203;51.998;5.140;2022-07-06T02:36:58;4.65;;;1.63;;
65558;SDS011;52203;51.998;5.140;2022-07-06T02:39:25;5.03;;;2.10;;
65558;SDS011;52203;51.998;5.140;2022-07-06T02:41:50;3.20;;;1.60;;
65558;SDS011;52203;51.998;5.140;2022-07-06T02:44:16;6.82;;;1.55;;
65558;SDS011;52203;51.998;5.140;2022-07-06T02:46:41;3.20;;;1.50;;
65558;SDS011;52203;51.998;5.140;2022-07-06T02:49:07;3.28;;;1.60;;
65558;SDS011;52203;51.998;5.140;2022-07-06T02:51:32;3.38;;;1.40;;
65558;SDS011;52203;51.998;5.140;2022-07-06T02:53:58;3.25;;;1.42;;
65558;SDS011;52203;51.998;5.140;2022-07-06T02:56:23;3.50;;;1.60;;
65558;SDS011;52203;51.998;5.140;2022-07-06T02:58:49;2.92;;;1.52;;
65558;SDS011;52203;51.998;5.140;2022-07-06T03:01:14;3.33;;;1.48;;
65558;SDS011;52203;51.998;5.140;2022-07-06T03:03:40;3.50;;;1.30;;
65558;SDS011;52203;51.998;5.140;2022-07-06T03:06:05;5.75;;;1.88;;
65558;SDS011;52203;51.998;5.140;2022-07-06T03:08:31;2.42;;;1.38;;
65558;SDS011;52203;51.998;5.140;2022-07-06T03:10:56;2.25;;;1.20;;
65558;SDS011;52203;51.998;5.140;2022-07-06T03:13:22;3.90;;;1.50;;
65558;SDS011;52203;51.998;5.140;2022-07-06T03:15:47;3.47;;;1.35;;
65558;SDS011;52203;51.998;5.140;2022-07-06T03:18:13;2.92;;;1.45;;
65558;SDS011;52203;51.998;5.140;2022-07-06T03:20:38;2.90;;;1.42;;
65558;SDS011;52203;51.998;5.140;2022-07-06T03:23:04;1.88;;;1.10;;
65558;SDS011;52203;51.998;5.140;2022-07-06T03:25:29;3.60;;;1.70;;
65558;SDS011;52203;51.998;5.140;2022-07-06T03:27:55;2.95;;;1.60;;
65558;SDS011;52203;51.998;5.140;2022-07-06T03:30:20;3.15;;;1.42;;
65558;SDS011;52203;51.998;5.140;2022-07-06T03:32:46;3.13;;;1.77;;
65558;SDS011;52203;51.998;5.140;2022-07-06T03:35:11;3.40;;;1.30;;
65558;SDS011;52203;51.998;5.140;2022-07-06T03:37:37;2.50;;;1.50;;
65558;SDS011;52203;51.998;5.140;2022-07-06T03:40:02;3.85;;;1.15;;
65558;SDS011;52203;51.998;5.140;2022-07-06T03:42:28;2.55;;;1.20;;
65558;SDS011;52203;51.998;5.140;2022-07-06T03:44:53;2.40;;;1.50;;
65558;SDS011;52203;51.998;5.140;2022-07-06T03:47:19;3.88;;;1.10;;
65558;SDS011;52203;51.998;5.140;2022-07-06T03:49:44;2.88;;;1.40;;
65558;SDS011;52203;51.998;5.140;2022-07-06T03:52:10;3.78;;;1.20;;
65558;SDS011;52203;51.998;5.140;2022-07-06T03:54:35;2.65;;;1.42;;
65558;SDS011;52203;51.998;5.140;2022-07-06T03:57:01;2.92;;;1.33;;
65558;SDS011;52203;51.998;5.140;2022-07-06T03:59:26;3.70;;;1.33;;
65558;SDS011;52203;51.998;5.140;2022-07-06T04:01:52;2.60;;;1.30;;
65558;SDS011;52203;51.998;5.140;2022-07-06T04:04:17;2.55;;;1.27;;
65558;SDS011;52203;51.998;5.140;2022-07-06T04:06:43;3.13;;;1.27;;
65558;SDS011;52203;51.998;5.140;2022-07-06T04:09:08;1.85;;;1.15;;
65558;SDS011;52203;51.998;5.140;2022-07-06T04:11:34;2.33;;;1.25;;
65558;SDS011;52203;51.998;5.140;2022-07-06T04:14:00;5.68;;;1.38;;
65558;SDS011;52203;51.998;5.140;2022-07-06T04:16:25;1.63;;;1.10;;
65558;SDS011;52203;51.998;5.140;2022-07-06T04:18:51;3.42;;;1.08;;
65558;SDS011;52203;51.998;5.140;2022-07-06T04:21:16;3.10;;;1.23;;
65558;SDS011;52203;51.998;5.140;2022-07-06T04:23:42;3.17;;;1.13;;
65558;SDS011;52203;51.998;5.140;2022-07-06T04:26:07;2.25;;;1.15;;
65558;SDS011;52203;51.998;5.140;2022-07-06T04:28:33;2.95;;;1.30;;
65558;SDS011;52203;51.998;5.140;2022-07-06T04:30:58;2.50;;;1.15;;
65558;SDS011;52203;51.998;5.140;2022-07-06T04:33:24;2.63;;;1.27;;
65558;SDS011;52203;51.998;5.140;2022-07-06T04:35:49;2.15;;;1.20;;
65558;SDS011;52203;51.998;5.140;2022-07-06T04:38:15;3.85;;;1.48;;
65558;SDS011;52203;51.998;5.140;2022-07-06T04:40:40;3.28;;;1.10;;
65558;SDS011;52203;51.998;5.140;2022-07-06T04:43:06;2.80;;;1.20;;
65558;SDS011;52203;51.998;5.140;2022-07-06T04:45:32;2.20;;;1.23;;
65558;SDS011;52203;51.998;5.140;2022-07-06T04:47:57;1.95;;;1.30;;
65558;SDS011;52203;51.998;5.140;2022-07-06T04:50:23;2.08;;;1.10;;
65558;SDS011;52203;51.998;5.140;2022-07-06T04:52:49;2.83;;;1.20;;
65558;SDS011;52203;51.998;5.140;2022-07-06T04:55:15;2.22;;;1.20;;
65558;SDS011;52203;51.998;5.140;2022-07-06T04:57:40;1.98;;;1.10;;
65558;SDS011;52203;51.998;5.140;2022-07-06T05:00:06;4.20;;;1.15;;
65558;SDS011;52203;51.998;5.140;2022-07-06T05:02:32;2.30;;;1.20;;
65558;SDS011;52203;51.998;5.140;2022-07-06T05:04:58;3.50;;;1.23;;
65558;SDS011;52203;51.998;5.140;2022-07-06T05:07:23;3.58;;;1.30;;
65558;SDS011;52203;51.998;5.140;2022-07-06T05:09:54;2.47;;;1.20;;
65558;SDS011;52203;51.998;5.140;2022-07-06T05:12:19;2.20;;;1.15;;
65558;SDS011;52203;51.998;5.140;2022-07-06T05:14:45;2.80;;;1.33;;
65558;SDS011;52203;51.998;5.140;2022-07-06T05:17:10;4.03;;;1.23;;
65558;SDS011;52203;51.998;5.140;2022-07-06T05:19:36;1.85;;;1.02;;
65558;SDS011;52203;51.998;5.140;2022-07-06T05:22:01;2.63;;;1.00;;
65558;SDS011;52203;51.998;5.140;2022-07-06T05:24:27;3.15;;;1.10;;
65558;SDS011;52203;51.998;5.140;2022-07-06T05:26:52;1.80;;;1.10;;
65558;SDS011;52203;51.998;5.140;2022-07-06T05:29:18;2.78;;;0.98;;
65558;SDS011;52203;51.998;5.140;2022-07-06T05:31:43;3.45;;;1.20;;
65558;SDS011;52203;51.998;5.140;2022-07-06T05:34:09;3.67;;;1.17;;
65558;SDS011;52203;51.998;5.140;2022-07-06T05:36:34;4.80;;;1.40;;
65558;SDS011;52203;51.998;5.140;2022-07-06T05:39:00;1.73;;;0.80;;
65558;SDS011;52203;51.998;5.140;2022-07-06T05:41:25;2.67;;;0.98;;
65558;SDS011;52203;51.998;5.140;2022-07-06T05:43:51;1.48;;;1.00;;
65558;SDS011;52203;51.998;5.140;2022-07-06T05:46:16;2.67;;;1.15;;
65558;SDS011;52203;51.998;5.140;2022-07-06T05:48:42;1.35;;;0.90;;
65558;SDS011;52203;51.998;5.140;2022-07-06T05:51:25;2.30;;;1.00;;
65558;SDS011;52203;51.998;5.140;2022-07-06T05:53:51;2.63;;;0.90;;
65558;SDS011;52203;51.998;5.140;2022-07-06T05:56:17;3.42;;;0.90;;
65558;SDS011;52203;51.998;5.140;2022-07-06T05:58:42;3.45;;;1.08;;
65558;SDS011;52203;51.998;5.140;2022-07-06T06:01:08;3.25;;;1.25;;
65558;SDS011;52203;51.998;5.140;2022-07-06T06:03:34;2.03;;;0.98;;
65558;SDS011;52203;51.998;5.140;2022-07-06T06:05:59;1.58;;;0.93;;
65558;SDS011;52203;51.998;5.140;2022-07-06T06:08:25;2.67;;;1.02;;
65558;SDS011;52203;51.998;5.140;2022-07-06T06:10:51;1.80;;;1.17;;
65558;SDS011;52203;51.998;5.140;2022-07-06T06:13:18;2.58;;;1.23;;
65558;SDS011;52203;51.998;5.140;2022-07-06T06:15:43;1.40;;;0.90;;
65558;SDS011;52203;51.998;5.140;2022-07-06T06:18:09;2.28;;;0.93;;
65558;SDS011;52203;51.998;5.140;2022-07-06T06:20:34;1.70;;;0.90;;
65558;SDS011;52203;51.998;5.140;2022-07-06T06:23:00;0.93;;;0.75;;
65558;SDS011;52203;51.998;5.140;2022-07-06T06:25:29;4.68;;;1.45;;
65558;SDS011;52203;51.998;5.140;2022-07-06T06:27:57;1.85;;;0.73;;
65558;SDS011;52203;51.998;5.140;2022-07-06T06:30:23;2.97;;;0.88;;
65558;SDS011;52203;51.998;5.140;2022-07-06T06:32:48;2.08;;;0.80;;
65558;SDS011;52203;51.998;5.140;2022-07-06T06:35:14;2.67;;;0.80;;
65558;SDS011;52203;51.998;5.140;2022-07-06T06:37:40;1.08;;;0.70;;
65558;SDS011;52203;51.998;5.140;2022-07-06T06:40:07;1.73;;;0.80;;
65558;SDS011;52203;51.998;5.140;2022-07-06T06:42:35;1.67;;;0.65;;
65558;SDS011;52203;51.998;5.140;2022-07-06T06:45:01;1.13;;;0.70;;
65558;SDS011;52203;51.998;5.140;2022-07-06T06:47:27;1.35;;;0.70;;
65558;SDS011;52203;51.998;5.140;2022-07-06T06:49:53;2.08;;;1.02;;
65558;SDS011;52203;51.998;5.140;2022-07-06T06:52:19;1.27;;;0.70;;
65558;SDS011;52203;51.998;5.140;2022-07-06T06:54:45;2.47;;;0.80;;
65558;SDS011;52203;51.998;5.140;2022-07-06T06:57:10;1.50;;;0.73;;
65558;SDS011;52203;51.998;5.140;2022-07-06T06:59:36;2.65;;;0.70;;
65558;SDS011;52203;51.998;5.140;2022-07-06T07:02:01;1.05;;;0.50;;
65558;SDS011;52203;51.998;5.140;2022-07-06T07:04:27;2.05;;;0.82;;
65558;SDS011;52203;51.998;5.140;2022-07-06T07:06:54;1.10;;;0.57;;
65558;SDS011;52203;51.998;5.140;2022-07-06T07:09:19;1.02;;;0.60;;
65558;SDS011;52203;51.998;5.140;2022-07-06T07:11:45;3.35;;;0.70;;
65558;SDS011;52203;51.998;5.140;2022-07-06T07:14:11;1.88;;;0.60;;
65558;SDS011;52203;51.998;5.140;2022-07-06T07:16:36;0.95;;;0.47;;
65558;SDS011;52203;51.998;5.140;2022-07-06T07:19:02;1.25;;;0.60;;
65558;SDS011;52203;51.998;5.140;2022-07-06T07:21:27;0.88;;;0.68;;
65558;SDS011;52203;51.998;5.140;2022-07-06T07:23:53;1.05;;;0.80;;
65558;SDS011;52203;51.998;5.140;2022-07-06T07:26:18;0.80;;;0.50;;
65558;SDS011;52203;51.998;5.140;2022-07-06T07:28:44;1.20;;;0.60;;
65558;SDS011;52203;51.998;5.140;2022-07-06T07:31:10;1.15;;;0.60;;
65558;SDS011;52203;51.998;5.140;2022-07-06T07:33:36;1.75;;;0.70;;
65558;SDS011;52203;51.998;5.140;2022-07-06T07:36:01;2.38;;;0.80;;
65558;SDS011;52203;51.998;5.140;2022-07-06T07:38:27;1.17;;;0.60;;
65558;SDS011;52203;51.998;5.140;2022-07-06T07:40:55;2.40;;;0.63;;
65558;SDS011;52203;51.998;5.140;2022-07-06T07:43:21;1.48;;;0.50;;
65558;SDS011;52203;51.998;5.140;2022-07-06T07:45:47;1.73;;;0.65;;
65558;SDS011;52203;51.998;5.140;2022-07-06T07:48:13;1.98;;;0.50;;
65558;SDS011;52203;51.998;5.140;2022-07-06T07:50:40;0.57;;;0.40;;
65558;SDS011;52203;51.998;5.140;2022-07-06T07:53:05;0.82;;;0.50;;
65558;SDS011;52203;51.998;5.140;2022-07-06T07:55:31;1.40;;;0.50;;
65558;SDS011;52203;51.998;5.140;2022-07-06T07:57:56;0.50;;;0.40;;
65558;SDS011;52203;51.998;5.140;2022-07-06T08:00:22;0.65;;;0.43;;
65558;SDS011;52203;51.998;5.140;2022-07-06T08:02:49;0.32;;;0.32;;
65558;SDS011;52203;51.998;5.140;2022-07-06T08:05:15;0.80;;;0.50;;
65558;SDS011;52203;51.998;5.140;2022-07-06T08:07:41;1.80;;;0.70;;
65558;SDS011;52203;51.998;5.140;2022-07-06T08:10:08;0.40;;;0.40;;
65558;SDS011;52203;51.998;5.140;2022-07-06T08:12:35;1.80;;;0.70;;
65558;SDS011;52203;51.998;5.140;2022-07-06T08:15:00;0.85;;;0.40;;
65558;SDS011;52203;51.998;5.140;2022-07-06T08:17:26;0.40;;;0.40;;
65558;SDS011;52203;51.998;5.140;2022-07-06T08:19:52;1.45;;;0.57;;
65558;SDS011;52203;51.998;5.140;2022-07-06T08:22:17;0.82;;;0.40;;
65558;SDS011;52203;51.998;5.140;2022-07-06T08:24:43;0.30;;;0.30;;
65558;SDS011;52203;51.998;5.140;2022-07-06T08:27:08;0.45;;;0.45;;
65558;SDS011;52203;51.998;5.140;2022-07-06T08:29:34;1.65;;;0.50;;
65558;SDS011;52203;51.998;5.140;2022-07-06T08:31:59;1.25;;;0.85;;
65558;SDS011;52203;51.998;5.140;2022-07-06T08:34:25;1.15;;;0.60;;
65558;SDS011;52203;51.998;5.140;2022-07-06T08:36:50;0.85;;;0.40;;
65558;SDS011;52203;51.998;5.140;2022-07-06T08:39:16;0.38;;;0.38;;
65558;SDS011;52203;51.998;5.140;2022-07-06T08:41:42;0.45;;;0.40;;
65558;SDS011;52203;51.998;5.140;2022-07-06T08:44:12;1.67;;;0.45;;
65558;SDS011;52203;51.998;5.140;2022-07-06T08:46:38;0.90;;;0.50;;
65558;SDS011;52203;51.998;5.140;2022-07-06T08:49:05;1.00;;;0.50;;
65558;SDS011;52203;51.998;5.140;2022-07-06T08:51:32;1.98;;;0.50;;
65558;SDS011;52203;51.998;5.140;2022-07-06T08:53:59;0.57;;;0.47;;
65558;SDS011;52203;51.998;5.140;2022-07-06T08:56:26;2.60;;;0.57;;
65558;SDS011;52203;51.998;5.140;2022-07-06T08:58:53;1.13;;;0.40;;
65558;SDS011;52203;51.998;5.140;2022-07-06T09:01:19;1.05;;;0.40;;
65558;SDS011;52203;51.998;5.140;2022-07-06T09:03:46;0.63;;;0.43;;
65558;SDS011;52203;51.998;5.140;2022-07-06T09:06:19;0.93;;;0.30;;
65558;SDS011;52203;51.998;5.140;2022-07-06T09:08:49;0.52;;;0.40;;
65558;SDS011;52203;51.998;5.140;2022-07-06T09:11:19;0.47;;;0.40;;
65558;SDS011;52203;51.998;5.140;2022-07-06T09:13:48;0.40;;;0.40;;
65558;SDS011;52203;51.998;5.140;2022-07-06T09:16:15;0.60;;;0.40;;
65558;SDS011;52203;51.998;5.140;2022-07-06T09:18:45;1.60;;;0.50;;
65558;SDS011;52203;51.998;5.140;2022-07-06T09:21:11;0.98;;;0.60;;
65558;SDS011;52203;51.998;5.140;2022-07-06T09:23:46;0.50;;;0.50;;
65558;SDS011;52203;51.998;5.140;2022-07-06T09:26:12;0.57;;;0.40;;
65558;SDS011;52203;51.998;5.140;2022-07-06T09:28:43;0.40;;;0.40;;
65558;SDS011;52203;51.998;5.140;2022-07-06T09:31:09;0.45;;;0.40;;
65558;SDS011;52203;51.998;5.140;2022-07-06T09:33:35;0.65;;;0.30;;
65558;SDS011;52203;51.998;5.140;2022-07-06T09:36:02;1.48;;;0.40;;
65558;SDS011;52203;51.998;5.140;2022-07-06T09:38:28;0.65;;;0.50;;
65558;SDS011;52203;51.998;5.140;2022-07-06T09:40:54;1.45;;;0.43;;
65558;SDS011;52203;51.998;5.140;2022-07-06T09:43:20;0.40;;;0.40;;
65558;SDS011;52203;51.998;5.140;2022-07-06T09:45:53;0.68;;;0.40;;
65558;SDS011;52203;51.998;5.140;2022-07-06T09:48:24;0.38;;;0.38;;
65558;SDS011;52203;51.998;5.140;2022-07-06T09:50:57;0.40;;;0.40;;
65558;SDS011;52203;51.998;5.140;2022-07-06T09:53:24;0.85;;;0.40;;
65558;SDS011;52203;51.998;5.140;2022-07-06T09:55:51;0.45;;;0.30;;
65558;SDS011;52203;51.998;5.140;2022-07-06T09:58:18;1.80;;;0.40;;
65558;SDS011;52203;51.998;5.140;2022-07-06T10:00:45;0.63;;;0.43;;
65558;SDS011;52203;51.998;5.140;2022-07-06T10:03:11;1.02;;;0.40;;
65558;SDS011;52203;51.998;5.140;2022-07-06T10:05:38;1.00;;;0.40;;
65558;SDS011;52203;51.998;5.140;2022-07-06T10:08:05;2.10;;;1.13;;
65558;SDS011;52203;51.998;5.140;2022-07-06T10:10:34;1.70;;;0.40;;
65558;SDS011;52203;51.998;5.140;2022-07-06T10:13:01;0.57;;;0.40;;
65558;SDS011;52203;51.998;5.140;2022-07-06T10:15:29;0.65;;;0.40;;
65558;SDS011;52203;51.998;5.140;2022-07-06T10:18:01;0.63;;;0.40;;
65558;SDS011;52203;51.998;5.140;2022-07-06T10:20:30;0.30;;;0.30;;
65558;SDS011;52203;51.998;5.140;2022-07-06T10:23:01;0.45;;;0.40;;
65558;SDS011;52203;51.998;5.140;2022-07-06T10:25:29;0.80;;;0.40;;
65558;SDS011;52203;51.998;5.140;2022-07-06T10:27:56;0.60;;;0.40;;
65558;SDS011;52203;51.998;5.140;2022-07-06T10:30:22;2.03;;;0.60;;
65558;SDS011;52203;51.998;5.140;2022-07-06T10:32:49;1.33;;;0.70;;
65558;SDS011;52203;51.998;5.140;2022-07-06T10:35:15;0.40;;;0.40;;
65558;SDS011;52203;51.998;5.140;2022-07-06T10:37:43;1.20;;;0.40;;
65558;SDS011;52203;51.998;5.140;2022-07-06T10:40:10;0.75;;;0.40;;
65558;SDS011;52203;51.998;5.140;2022-07-06T10:42:58;0.57;;;0.50;;
65558;SDS011;52203;51.998;5.140;2022-07-06T10:50:45;1.70;;;0.63;;
65558;SDS011;52203;51.998;5.140;2022-07-06T10:53:21;0.63;;;0.43;;
65558;SDS011;52203;51.998;5.140;2022-07-06T10:55:52;0.50;;;0.40;;
65558;SDS011;52203;51.998;5.140;2022-07-06T11:01:05;1.63;;;0.52;;
65558;SDS011;52203;51.998;5.140;2022-07-06T11:03:32;0.63;;;0.52;;
65558;SDS011;52203;51.998;5.140;2022-07-06T11:06:21;0.90;;;0.60;;
65558;SDS011;52203;51.998;5.140;2022-07-06T11:08:47;1.40;;;0.43;;
65558;SDS011;52203;51.998;5.140;2022-07-06T11:11:17;1.15;;;0.80;;
65558;SDS011;52203;51.998;5.140;2022-07-06T11:16:23;3.40;;;0.70;;
65558;SDS011;52203;51.998;5.140;2022-07-06T11:21:34;1.48;;;0.40;;
65558;SDS011;52203;51.998;5.140;2022-07-06T11:24:11;0.80;;;0.52;;
65558;SDS011;52203;51.998;5.140;2022-07-06T11:26:42;0.68;;;0.50;;
65558;SDS011;52203;51.998;5.140;2022-07-06T11:29:10;4.03;;;0.82;;
65558;SDS011;52203;51.998;5.140;2022-07-06T11:31:41;1.33;;;0.77;;
65558;SDS011;52203;51.998;5.140;2022-07-06T11:34:09;1.25;;;0.50;;
65558;SDS011;52203;51.998;5.140;2022-07-06T11:36:36;1.15;;;0.43;;
65558;SDS011;52203;51.998;5.140;2022-07-06T11:39:03;0.77;;;0.40;;
65558;SDS011;52203;51.998;5.140;2022-07-06T11:41:30;0.70;;;0.38;;
65558;SDS011;52203;51.998;5.140;2022-07-06T11:43:56;0.88;;;0.60;;
65558;SDS011;52203;51.998;5.140;2022-07-06T11:46:31;2.80;;;0.60;;
65558;SDS011;52203;51.998;5.140;2022-07-06T11:49:00;2.25;;;0.60;;
65558;SDS011;52203;51.998;5.140;2022-07-06T11:51:30;0.88;;;0.55;;
65558;SDS011;52203;51.998;5.140;2022-07-06T11:54:00;0.93;;;0.50;;
65558;SDS011;52203;51.998;5.140;2022-07-06T11:56:27;0.52;;;0.47;;
65558;SDS011;52203;51.998;5.140;2022-07-06T11:58:57;0.95;;;0.40;;
65558;SDS011;52203;51.998;5.140;2022-07-06T12:01:25;1.25;;;0.57;;
65558;SDS011;52203;51.998;5.140;2022-07-06T12:04:00;1.67;;;0.77;;
65558;SDS011;52203;51.998;5.140;2022-07-06T12:06:29;1.05;;;0.50;;
65558;SDS011;52203;51.998;5.140;2022-07-06T12:08:56;2.13;;;0.50;;
65558;SDS011;52203;51.998;5.140;2022-07-06T12:13:51;0.95;;;0.47;;
65558;SDS011;52203;51.998;5.140;2022-07-06T12:16:18;2.05;;;0.73;;
65558;SDS011;52203;51.998;5.140;2022-07-06T12:18:47;3.00;;;0.75;;
65558;SDS011;52203;51.998;5.140;2022-07-06T12:21:14;0.82;;;0.57;;
65558;SDS011;52203;51.998;5.140;2022-07-06T12:23:50;2.38;;;0.70;;
65558;SDS011;52203;51.998;5.140;2022-07-06T12:26:18;1.83;;;0.70;;
65558;SDS011;52203;51.998;5.140;2022-07-06T12:28:46;0.68;;;0.52;;
65558;SDS011;52203;51.998;5.140;2022-07-06T12:34:28;2.53;;;0.70;;
65558;SDS011;52203;51.998;5.140;2022-07-06T12:37:02;1.02;;;0.55;;
65558;SDS011;52203;51.998;5.140;2022-07-06T12:39:31;1.20;;;0.70;;
65558;SDS011;52203;51.998;5.140;2022-07-06T12:42:01;2.80;;;0.60;;
65558;SDS011;52203;51.998;5.140;2022-07-06T12:44:29;2.30;;;0.80;;
65558;SDS011;52203;51.998;5.140;2022-07-06T12:47:05;2.13;;;0.60;;
65558;SDS011;52203;51.998;5.140;2022-07-06T12:49:35;1.05;;;0.60;;
65558;SDS011;52203;51.998;5.140;2022-07-06T12:52:12;1.45;;;0.60;;
65558;SDS011;52203;51.998;5.140;2022-07-06T12:54:48;2.38;;;0.60;;
65558;SDS011;52203;51.998;5.140;2022-07-06T12:57:16;2.63;;;0.80;;
65558;SDS011;52203;51.998;5.140;2022-07-06T12:59:44;1.67;;;0.60;;
65558;SDS011;52203;51.998;5.140;2022-07-06T13:02:19;1.63;;;0.63;;
65558;SDS011;52203;51.998;5.140;2022-07-06T13:04:55;2.42;;;0.75;;
65558;SDS011;52203;51.998;5.140;2022-07-06T13:07:32;1.33;;;0.60;;
65558;SDS011;52203;51.998;5.140;2022-07-06T13:10:05;1.33;;;0.60;;
65558;SDS011;52203;51.998;5.140;2022-07-06T13:12:32;2.15;;;0.73;;
65558;SDS011;52203;51.998;5.140;2022-07-06T13:14:57;4.10;;;0.95;;
65558;SDS011;52203;51.998;5.140;2022-07-06T13:17:23;6.18;;;0.70;;
65558;SDS011;52203;51.998;5.140;2022-07-06T13:19:49;1.65;;;0.90;;
65558;SDS011;52203;51.998;5.140;2022-07-06T13:22:15;1.30;;;0.73;;
65558;SDS011;52203;51.998;5.140;2022-07-06T13:24:41;2.17;;;0.88;;
65558;SDS011;52203;51.998;5.140;2022-07-06T13:27:07;3.40;;;0.90;;
65558;SDS011;52203;51.998;5.140;2022-07-06T13:29:32;1.45;;;0.90;;
65558;SDS011;52203;51.998;5.140;2022-07-06T13:31:58;2.03;;;0.70;;
65558;SDS011;52203;51.998;5.140;2022-07-06T13:34:23;1.42;;;0.90;;
65558;SDS011;52203;51.998;5.140;2022-07-06T13:36:49;2.42;;;1.13;;
65558;SDS011;52203;51.998;5.140;2022-07-06T13:39:16;2.90;;;0.80;;
65558;SDS011;52203;51.998;5.140;2022-07-06T13:41:41;1.98;;;0.90;;
65558;SDS011;52203;51.998;5.140;2022-07-06T13:44:07;0.98;;;0.60;;
65558;SDS011;52203;51.998;5.140;2022-07-06T13:46:34;2.60;;;0.73;;
65558;SDS011;52203;51.998;5.140;2022-07-06T13:49:02;1.42;;;0.80;;
65558;SDS011;52203;51.998;5.140;2022-07-06T13:51:28;2.83;;;1.02;;
65558;SDS011;52203;51.998;5.140;2022-07-06T13:53:54;2.30;;;0.90;;
65558;SDS011;52203;51.998;5.140;2022-07-06T13:56:20;2.13;;;0.90;;
65558;SDS011;52203;51.998;5.140;2022-07-06T13:58:45;2.03;;;0.80;;
65558;SDS011;52203;51.998;5.140;2022-07-06T14:01:11;2.50;;;0.95;;
65558;SDS011;52203;51.998;5.140;2022-07-06T14:03:37;2.17;;;0.75;;
65558;SDS011;52203;51.998;5.140;2022-07-06T14:06:03;2.58;;;0.80;;
65558;SDS011;52203;51.998;5.140;2022-07-06T14:08:30;1.70;;;0.70;;
65558;SDS011;52203;51.998;5.140;2022-07-06T14:10:56;2.42;;;0.90;;
65558;SDS011;52203;51.998;5.140;2022-07-06T14:13:22;2.83;;;1.02;;
65558;SDS011;52203;51.998;5.140;2022-07-06T14:15:48;1.92;;;1.15;;
65558;SDS011;52203;51.998;5.140;2022-07-06T14:18:14;5.28;;;1.13;;
65558;SDS011;52203;51.998;5.140;2022-07-06T14:20:42;1.63;;;0.70;;
65558;SDS011;52203;51.998;5.140;2022-07-06T14:23:09;2.35;;;0.90;;
65558;SDS011;52203;51.998;5.140;2022-07-06T14:25:36;1.50;;;0.95;;
65558;SDS011;52203;51.998;5.140;2022-07-06T14:28:02;1.88;;;1.10;;
65558;SDS011;52203;51.998;5.140;2022-07-06T14:30:27;1.52;;;1.00;;
65558;SDS011;52203;51.998;5.140;2022-07-06T14:32:53;2.70;;;1.30;;
65558;SDS011;52203;51.998;5.140;2022-07-06T14:35:18;1.27;;;0.90;;
65558;SDS011;52203;51.998;5.140;2022-07-06T14:37:44;2.45;;;1.10;;
65558;SDS011;52203;51.998;5.140;2022-07-06T14:40:09;2.67;;;1.13;;
65558;SDS011;52203;51.998;5.140;2022-07-06T14:42:35;4.00;;;1.58;;
65558;SDS011;52203;51.998;5.140;2022-07-06T14:45:00;2.53;;;1.08;;
65558;SDS011;52203;51.998;5.140;2022-07-06T14:47:26;4.10;;;1.25;;
65558;SDS011;52203;51.998;5.140;2022-07-06T14:49:51;4.88;;;1.42;;
65558;SDS011;52203;51.998;5.140;2022-07-06T14:52:18;2.15;;;1.10;;
65558;SDS011;52203;51.998;5.140;2022-07-06T14:54:43;3.83;;;1.42;;
65558;SDS011;52203;51.998;5.140;2022-07-06T14:57:09;3.72;;;1.20;;
65558;SDS011;52203;51.998;5.140;2022-07-06T14:59:35;2.40;;;1.58;;
65558;SDS011;52203;51.998;5.140;2022-07-06T15:02:01;1.95;;;1.35;;
65558;SDS011;52203;51.998;5.140;2022-07-06T15:04:27;3.33;;;1.20;;